Hoegh Transporter — LAKO7 — position and weather

sailwx.info

Track history (hours):
 
Tides and Currents Weather Stations Pressure Air Temp Water Temp Dewpoint Dewpoint Depression Visibility Wind Speed Wind Dir Waves Ship Positions

Hoegh Transporter

Last reported at 2014-Oct-17 15:32 UTC. Time now 2014-Oct-22 09:44 UTC.
Position N 31°12' E 122°57'.

Length 199 m; draft 8.8 m.

Type: Cargo ship. MMSI: 257712000.

Date/timePositionNaut miles runAvg speedWind from/ knotsBaromVisibWave heightAir tempDewpointWater temp
2014-Oct-17 15:32N 31°12' E 122°57'1515.0
2014-Oct-17 14:33N 31°06' E 122°41'1512.2
2014-Oct-17 13:20N 31°06' E 122°24'1314.8
2014-Oct-17 12:27N 31°11' E 122°10'1312.6
2014-Oct-17 11:25N 31°15' E 121°55'1214.0
2014-Oct-17 10:32N 31°19' E 121°42'1 0.5
2014-Oct-17 09:10N 31°19' E 121°41'0 0.0
2014-Oct-17 08:28N 31°19' E 121°41'0 0.0
2014-Oct-17 06:10N 31°19' E 121°41'0 0.0
2014-Oct-17 05:28N 31°19' E 121°41'0 0.0
2014-Oct-17 04:22N 31°19' E 121°41'0 0.0
2014-Oct-17 02:22N 31°19' E 121°41'0 0.0
2014-Oct-17 01:16N 31°19' E 121°41'0 0.0
2014-Oct-17 00:16N 31°19' E 121°41'0 0.0
2014-Oct-16 23:22N 31°19' E 121°41'0 0.0
2014-Oct-16 21:16N 31°19' E 121°41'0 0.0
2014-Oct-16 20:22N 31°19' E 121°41'0 0.0
2014-Oct-16 19:22N 31°19' E 121°41'0 0.0
2014-Oct-16 18:22N 31°19' E 121°41'0 0.0
2014-Oct-16 17:22N 31°19' E 121°41'0 0.0
2014-Oct-16 16:22N 31°19' E 121°41'0 0.0
2014-Oct-16 15:28N 31°19' E 121°41'0 0.0
2014-Oct-16 14:22N 31°19' E 121°41'0 0.0
2014-Oct-16 13:22N 31°19' E 121°41'0 0.0
2014-Oct-16 12:16N 31°19' E 121°41'0 0.0
2014-Oct-16 11:16N 31°19' E 121°41'0 0.0
2014-Oct-16 10:22N 31°19' E 121°41'0 0.0
2014-Oct-16 08:30N 31°19' E 121°41'2 1.5
2014-Oct-16 07:30N 31°20' E 121°43'1211.8
2014-Oct-16 06:30N 31°16' E 121°56'1813.2
2014-Oct-16 05:07N 31°08' E 122°15'6 9.5
2014-Oct-16 04:32N 31°06' E 122°21'9 8.7
2014-Oct-16 03:33N 31°07' E 122°31'8 0.5
2014-Oct-15 11:08N 31°09' E 122°40'9 5.4
2014-Oct-15 09:25N 31°04' E 122°49'1214.2
2014-Oct-15 08:33N 30°54' E 122°57'1412.4
2014-Oct-15 07:24N 30°40' E 123°01'2914.1
2014-Oct-15 05:20N 30°13' E 123°14'47812.6
2014-Oct-13 15:31N 22°58' E 119°33'1313.5
2014-Oct-13 14:31N 22°48' E 119°24'1313.7
2014-Oct-13 13:33N 22°38' E 119°15'1413.3
2014-Oct-13 12:29N 22°27' E 119°05'  
2014-Oct-09 01:32N 01°15' E 104°06'1413.8
2014-Oct-09 00:34N 01°12' E 103°53'5 4.9
2014-Oct-08 23:32N 01°14' E 103°49'0 0.1
2014-Oct-08 22:32N 01°14' E 103°49'0 0.0
2014-Oct-08 21:32N 01°14' E 103°49'0 0.1
2014-Oct-08 20:32N 01°14' E 103°49'0 0.1
2014-Oct-08 19:32N 01°14' E 103°49'0 0.0
2014-Oct-08 18:32N 01°14' E 103°49'0 0.1
2014-Oct-08 17:32N 01°14' E 103°49'0 0.1
2014-Oct-08 16:29N 01°14' E 103°49'1 1.1
2014-Oct-08 15:34N 01°15' E 103°48'3 3.4
2014-Oct-08 14:34N 01°17' E 103°45'0 0.0
2014-Oct-08 13:33N 01°17' E 103°45'0 0.0
2014-Oct-08 12:33N 01°17' E 103°45'0 0.0
2014-Oct-08 11:33N 01°17' E 103°45'1 0.5
2014-Oct-08 10:33N 01°17' E 103°45'7 7.1
2014-Oct-08 09:34N 01°12' E 103°40'7 6.8
2014-Oct-08 08:33N 01°10' E 103°33'  
Track history (hours):
 
Tides and Currents Weather Stations Pressure Air Temp Water Temp Dewpoint Dewpoint Depression Visibility Wind Speed Wind Dir Waves Ship Positions

Hoegh Transporter

Last reported at 2014-Oct-17 15:32 UTC. Time now 2014-Oct-22 09:44 UTC.
Position N 31°12' E 122°57'.

Length 199 m; draft 8.8 m.

Type: Cargo ship. MMSI: 257712000.

Date/timePositionNaut miles runAvg speedWind from/ knotsBaromVisibWave heightAir tempDewpointWater temp
2014-Oct-17 15:32N 31°12' E 122°57'1515.0
2014-Oct-17 14:33N 31°06' E 122°41'1512.2
2014-Oct-17 13:20N 31°06' E 122°24'1314.8
2014-Oct-17 12:27N 31°11' E 122°10'1312.6
2014-Oct-17 11:25N 31°15' E 121°55'1214.0
2014-Oct-17 10:32N 31°19' E 121°42'1 0.5
2014-Oct-17 09:10N 31°19' E 121°41'0 0.0
2014-Oct-17 08:28N 31°19' E 121°41'0 0.0
2014-Oct-17 06:10N 31°19' E 121°41'0 0.0
2014-Oct-17 05:28N 31°19' E 121°41'0 0.0
2014-Oct-17 04:22N 31°19' E 121°41'0 0.0
2014-Oct-17 02:22N 31°19' E 121°41'0 0.0
2014-Oct-17 01:16N 31°19' E 121°41'0 0.0
2014-Oct-17 00:16N 31°19' E 121°41'0 0.0
2014-Oct-16 23:22N 31°19' E 121°41'0 0.0
2014-Oct-16 21:16N 31°19' E 121°41'0 0.0
2014-Oct-16 20:22N 31°19' E 121°41'0 0.0
2014-Oct-16 19:22N 31°19' E 121°41'0 0.0
2014-Oct-16 18:22N 31°19' E 121°41'0 0.0
2014-Oct-16 17:22N 31°19' E 121°41'0 0.0
2014-Oct-16 16:22N 31°19' E 121°41'0 0.0
2014-Oct-16 15:28N 31°19' E 121°41'0 0.0
2014-Oct-16 14:22N 31°19' E 121°41'0 0.0
2014-Oct-16 13:22N 31°19' E 121°41'0 0.0
2014-Oct-16 12:16N 31°19' E 121°41'0 0.0
2014-Oct-16 11:16N 31°19' E 121°41'0 0.0
2014-Oct-16 10:22N 31°19' E 121°41'0 0.0
2014-Oct-16 08:30N 31°19' E 121°41'2 1.5
2014-Oct-16 07:30N 31°20' E 121°43'1211.8
2014-Oct-16 06:30N 31°16' E 121°56'1813.2
2014-Oct-16 05:07N 31°08' E 122°15'6 9.5
2014-Oct-16 04:32N 31°06' E 122°21'9 8.7
2014-Oct-16 03:33N 31°07' E 122°31'8 0.5
2014-Oct-15 11:08N 31°09' E 122°40'9 5.4
2014-Oct-15 09:25N 31°04' E 122°49'1214.2
2014-Oct-15 08:33N 30°54' E 122°57'1412.4
2014-Oct-15 07:24N 30°40' E 123°01'2914.1
2014-Oct-15 05:20N 30°13' E 123°14'47812.6
2014-Oct-13 15:31N 22°58' E 119°33'1313.5
2014-Oct-13 14:31N 22°48' E 119°24'1313.7
2014-Oct-13 13:33N 22°38' E 119°15'1413.3
2014-Oct-13 12:29N 22°27' E 119°05'  
2014-Oct-09 01:32N 01°15' E 104°06'1413.8
2014-Oct-09 00:34N 01°12' E 103°53'5 4.9
2014-Oct-08 23:32N 01°14' E 103°49'0 0.1
2014-Oct-08 22:32N 01°14' E 103°49'0 0.0
2014-Oct-08 21:32N 01°14' E 103°49'0 0.1
2014-Oct-08 20:32N 01°14' E 103°49'0 0.1
2014-Oct-08 19:32N 01°14' E 103°49'0 0.0
2014-Oct-08 18:32N 01°14' E 103°49'0 0.1
2014-Oct-08 17:32N 01°14' E 103°49'0 0.1
2014-Oct-08 16:29N 01°14' E 103°49'1 1.1
2014-Oct-08 15:34N 01°15' E 103°48'3 3.4
2014-Oct-08 14:34N 01°17' E 103°45'0 0.0
2014-Oct-08 13:33N 01°17' E 103°45'0 0.0
2014-Oct-08 12:33N 01°17' E 103°45'0 0.0
2014-Oct-08 11:33N 01°17' E 103°45'1 0.5
2014-Oct-08 10:33N 01°17' E 103°45'7 7.1
2014-Oct-08 09:34N 01°12' E 103°40'7 6.8
2014-Oct-08 08:33N 01°10' E 103°33'  

Dump ship's entire track history